createdAt,value
2022-12-04T00:02:31.143Z,101797.97
2022-12-04T00:05:33.032Z,101800.56
2022-12-04T00:08:35.691Z,101797.94
2022-12-04T00:11:38.584Z,101793.59
2022-12-04T00:15:16.133Z,101802.28
2022-12-04T00:18:02.081Z,101795.34
2022-12-04T00:21:10.450Z,101804.84
2022-12-04T00:24:12.584Z,101810.91
2022-12-04T00:27:14.499Z,101803.97
2022-12-04T00:30:16.327Z,101806.59
2022-12-04T00:33:18.195Z,101814.38
2022-12-04T00:36:24.176Z,101816.13
2022-12-04T00:39:25.999Z,101825.66
2022-12-04T00:42:27.933Z,101814.38
2022-12-04T00:45:29.799Z,101809.16
2022-12-04T00:48:32.131Z,101812.63
2022-12-04T00:51:33.975Z,101811.69
2022-12-04T00:54:35.738Z,101815.19
2022-12-04T00:57:37.624Z,101801.28
2022-12-04T01:00:43.308Z,101795.19
2022-12-04T01:03:45.565Z,101791.66
2022-12-04T01:06:47.489Z,101802.94
2022-12-04T01:09:49.416Z,101801.19
2022-12-04T01:12:53.659Z,101796.00
2022-12-04T01:15:55.576Z,101796.84
2022-12-04T01:18:57.912Z,101798.56
2022-12-04T01:21:59.680Z,101801.16
2022-12-04T01:25:01.599Z,101798.53
2022-12-04T01:28:03.468Z,101805.47
2022-12-04T01:31:08.884Z,101805.47
2022-12-04T01:34:10.750Z,101816.72
2022-12-04T01:37:12.616Z,101811.50
2022-12-04T01:40:16.879Z,101810.63
2022-12-04T01:43:19.611Z,101809.81
2022-12-04T01:46:21.516Z,101812.38
2022-12-04T01:49:29.114Z,101804.59
2022-12-04T01:52:31.296Z,101802.81
2022-12-04T01:55:33.215Z,101805.38
2022-12-04T01:58:41.075Z,101794.97
2022-12-04T02:01:52.606Z,101800.19
2022-12-04T02:04:54.976Z,101806.25
2022-12-04T02:08:00.265Z,101796.72
2022-12-04T02:11:20.519Z,101801.94
2022-12-04T02:14:45.274Z,101801.91
2022-12-04T02:17:57.388Z,101801.88
2022-12-04T02:21:25.384Z,101812.34
2022-12-04T02:24:36.405Z,101817.50
2022-12-04T02:28:08.631Z,101824.47
2022-12-04T02:31:15.657Z,101819.28
2022-12-04T02:34:25.700Z,101818.44
2022-12-04T02:37:32.096Z,101823.56
2022-12-04T02:40:51.873Z,101819.25
2022-12-04T02:44:14.358Z,101822.69
2022-12-04T02:47:20.362Z,101823.59
2022-12-04T02:50:24.447Z,101832.25
2022-12-04T02:53:36.579Z,101833.09
2022-12-04T02:56:44.093Z,101831.34
2022-12-04T02:59:48.846Z,101827.84
2022-12-04T03:03:07.514Z,101830.53
2022-12-04T03:06:14.053Z,101820.06
2022-12-04T03:09:21.839Z,101823.53
2022-12-04T03:12:36.342Z,101836.53
2022-12-04T03:15:47.575Z,101829.56
2022-12-04T03:19:00.725Z,101833.88
2022-12-04T03:22:07.007Z,101836.47
2022-12-04T03:25:09.491Z,101846.00
2022-12-04T03:28:22.477Z,101843.38
2022-12-04T03:31:35.750Z,101846.81
2022-12-04T03:34:55.952Z,101849.41
2022-12-04T03:38:00.432Z,101852.94
2022-12-04T03:41:07.731Z,101852.03
2022-12-04T03:44:16.664Z,101854.63
2022-12-04T03:47:32.864Z,101861.56
2022-12-04T03:50:39.585Z,101858.09
2022-12-04T03:53:56.718Z,101866.81
2022-12-04T03:57:10.476Z,101860.75
2022-12-04T04:00:14.281Z,101859.00
2022-12-04T04:03:30.097Z,101856.38
2022-12-04T04:06:45.868Z,101842.44
2022-12-04T04:09:54.413Z,101859.81
2022-12-04T04:13:21.256Z,101861.56
2022-12-04T04:16:46.512Z,101869.28
2022-12-04T04:20:13.788Z,101864.97
2022-12-04T04:23:37.502Z,101863.22
2022-12-04T04:26:43.983Z,101867.56
2022-12-04T04:29:52.073Z,101866.69
2022-12-04T04:33:11.689Z,101864.06
2022-12-04T04:36:25.398Z,101866.59
2022-12-04T04:39:59.282Z,101863.13
2022-12-04T04:43:17.377Z,101868.34
2022-12-04T04:46:31.158Z,101864.84
2022-12-04T04:49:36.049Z,101862.28
2022-12-04T04:52:41.268Z,101863.13
2022-12-04T04:55:44.701Z,101869.19
2022-12-04T04:58:46.771Z,101870.88
2022-12-04T05:01:48.743Z,101861.34
2022-12-04T05:04:50.600Z,101875.19
2022-12-04T05:07:52.485Z,101876.94
2022-12-04T05:10:54.443Z,101880.34
2022-12-04T05:13:56.457Z,101884.75
2022-12-04T05:17:01.837Z,101889.94
2022-12-04T05:20:07.646Z,101889.03
2022-12-04T05:23:09.423Z,101896.00
2022-12-04T05:26:11.448Z,101890.75
2022-12-04T05:29:13.266Z,101897.78
2022-12-04T05:32:15.545Z,101899.50
2022-12-04T05:35:17.561Z,101898.72
2022-12-04T05:38:19.471Z,101896.16
2022-12-04T05:41:21.245Z,101911.72
2022-12-04T05:44:23.195Z,101903.09
2022-12-04T05:47:25.170Z,101907.44
2022-12-04T05:50:27.045Z,101916.16
2022-12-04T05:53:28.891Z,101907.50
2022-12-04T05:56:30.926Z,101911.78
2022-12-04T05:59:33.120Z,101901.41
2022-12-04T06:02:34.974Z,101910.06
2022-12-04T06:05:36.963Z,101917.00
2022-12-04T06:08:38.846Z,101916.16
2022-12-04T06:11:43.101Z,101918.81
2022-12-04T06:14:44.943Z,101921.41
2022-12-04T06:17:46.856Z,101917.13
2022-12-04T06:20:48.843Z,101919.66
2022-12-04T06:23:52.061Z,101928.38
2022-12-04T06:27:26.128Z,101923.19
2022-12-04T06:30:20.552Z,101928.41
2022-12-04T06:33:22.446Z,101934.47
2022-12-04T06:36:24.951Z,101920.59
2022-12-04T06:39:26.827Z,101930.16
2022-12-04T06:42:28.655Z,101934.53
2022-12-04T06:45:30.633Z,101936.34
2022-12-04T06:48:33.468Z,101939.78
2022-12-04T06:51:37.439Z,101939.78
2022-12-04T06:54:39.309Z,101934.66
2022-12-04T06:57:41.133Z,101936.47
2022-12-04T07:00:42.936Z,101951.31
2022-12-04T07:03:51.373Z,101950.50
2022-12-04T07:06:54.626Z,101947.94
2022-12-04T07:09:56.750Z,101954.91
2022-12-04T07:12:58.775Z,101958.47
2022-12-04T07:16:02.906Z,101961.13
2022-12-04T07:19:04.835Z,101954.28
2022-12-04T07:22:08.936Z,101949.16
2022-12-04T07:25:10.907Z,101952.63
2022-12-04T07:28:12.715Z,101950.06
2022-12-04T07:31:17.930Z,101951.81
2022-12-04T07:34:19.889Z,101951.03
2022-12-04T07:37:21.796Z,101958.06
2022-12-04T07:40:23.677Z,101946.84
2022-12-04T07:43:27.268Z,101950.34
2022-12-04T07:46:29.483Z,101951.19
2022-12-04T07:49:31.298Z,101942.50
2022-12-04T07:52:39.955Z,101951.22
2022-12-04T07:55:42.167Z,101943.38
2022-12-04T07:58:44.695Z,101943.38
2022-12-04T08:01:46.602Z,101944.19
2022-12-04T08:04:51.331Z,101945.13
2022-12-04T08:07:53.449Z,101947.72
2022-12-04T11:32:21.346Z,101822.84
2022-12-04T11:35:26.042Z,101831.56
2022-12-04T11:38:30.311Z,101821.13
2022-12-04T11:41:33.193Z,101823.75
2022-12-04T11:44:36.471Z,101815.06
2022-12-04T11:47:38.346Z,101808.91
2022-12-04T11:50:47.266Z,101808.06
2022-12-04T11:54:02.866Z,101805.47
2022-12-04T11:57:15.230Z,101804.63
2022-12-04T12:00:19.954Z,101809.84
2022-12-04T12:03:39.564Z,101811.56
2022-12-04T12:07:09.544Z,101806.34
2022-12-04T12:10:19.098Z,101813.34
2022-12-04T12:13:34.444Z,101808.13
2022-12-04T12:16:49.898Z,101810.78
2022-12-04T12:20:31.323Z,101813.41
2022-12-04T12:24:10.524Z,101811.72
2022-12-04T12:27:39.490Z,101817.75
2022-12-04T12:30:55.486Z,101826.50
2022-12-04T12:34:43.412Z,101816.91
2022-12-04T12:37:52.643Z,101813.47
2022-12-04T12:41:01.029Z,101823.97
2022-12-04T12:44:05.514Z,101818.78
2022-12-04T12:47:17.950Z,101817.00
2022-12-04T12:50:29.381Z,101820.50
2022-12-04T12:53:36.646Z,101816.16
2022-12-04T12:56:47.833Z,101820.53
2022-12-04T12:59:57.822Z,101824.91
2022-12-04T13:03:23.205Z,101823.22
2022-12-04T13:06:33.759Z,101821.44
2022-12-04T13:09:42.311Z,101819.72
2022-12-04T13:13:07.798Z,101815.38
2022-12-04T13:16:19.906Z,101809.25
2022-12-04T13:19:29.936Z,101817.13
2022-12-04T13:22:59.482Z,101818.00
2022-12-04T13:26:28.492Z,101818.00
2022-12-04T13:30:02.598Z,101823.22
2022-12-04T13:33:39.670Z,101830.22
2022-12-04T13:36:50.554Z,101832.84
2022-12-04T13:40:20.591Z,101826.75
2022-12-04T13:43:33.779Z,101834.56
2022-12-04T13:46:40.309Z,101832.84
2022-12-04T13:49:46.018Z,101835.47
2022-12-04T13:52:49.431Z,101838.09
2022-12-04T13:56:03.170Z,101836.34
2022-12-04T13:59:27.555Z,101834.59
2022-12-04T14:02:35.450Z,101843.31
2022-12-04T14:05:42.827Z,101840.75
2022-12-04T14:08:44.800Z,101833.78
2022-12-04T14:11:51.833Z,101833.78
2022-12-04T14:15:00.629Z,101840.75
2022-12-04T14:18:11.398Z,101845.97
2022-12-04T14:21:13.262Z,101852.06
2022-12-04T14:24:31.924Z,101852.06
2022-12-04T14:27:42.497Z,101852.06
2022-12-04T14:30:45.321Z,101843.38
2022-12-04T14:33:52.436Z,101839.03
2022-12-04T14:36:56.440Z,101850.34
2022-12-04T14:40:00.766Z,101849.47
2022-12-04T14:43:02.826Z,101848.59
2022-12-04T14:46:23.538Z,101850.34
2022-12-04T14:49:41.025Z,101842.50
2022-12-04T14:52:59.107Z,101849.47
2022-12-04T14:56:39.111Z,101852.06
2022-12-04T14:59:49.723Z,101852.06
2022-12-04T15:02:58.305Z,101849.47
2022-12-04T15:06:07.088Z,101843.38
2022-12-04T15:09:39.672Z,101839.03
2022-12-04T15:12:47.988Z,101838.16
2022-12-04T15:15:50.206Z,101842.50
2022-12-04T15:19:01.201Z,101847.72
2022-12-04T15:22:11.343Z,101840.75
2022-12-04T15:25:30.821Z,101850.31
2022-12-04T15:28:40.795Z,101848.56
2022-12-04T15:31:53.535Z,101841.63
2022-12-04T15:35:06.429Z,101844.22
2022-12-04T15:38:13.558Z,101840.72
2022-12-04T15:41:31.669Z,101840.72
2022-12-04T15:44:35.399Z,101837.25
2022-12-04T15:47:41.355Z,101836.38
2022-12-04T15:50:43.241Z,101840.69
2022-12-04T15:53:46.842Z,101837.22
2022-12-04T15:57:06.785Z,101849.38
2022-12-04T16:00:31.394Z,101838.97
2022-12-04T16:03:48.514Z,101839.84
2022-12-04T16:06:53.872Z,101837.22
2022-12-04T16:10:03.285Z,101843.31
2022-12-04T16:13:07.381Z,101838.97
2022-12-04T16:16:14.164Z,101841.56
2022-12-04T16:19:27.806Z,101846.78
2022-12-04T16:22:31.561Z,101852.84
2022-12-04T16:25:33.660Z,101849.38
2022-12-04T16:28:35.538Z,101850.25
2022-12-04T16:31:38.717Z,101850.25
2022-12-04T16:34:40.739Z,101849.38
2022-12-04T16:37:43.221Z,101851.13
2022-12-04T16:40:47.058Z,101844.16
2022-12-04T16:43:57.516Z,101846.75
2022-12-04T16:46:59.425Z,101849.38
2022-12-04T16:50:01.311Z,101850.25
2022-12-04T16:53:03.612Z,101848.50
2022-12-04T16:56:05.701Z,101849.34
2022-12-04T16:59:11.766Z,101845.00
2022-12-04T17:02:23.445Z,101847.63
2022-12-04T17:05:29.640Z,101846.75
2022-12-04T17:08:31.991Z,101850.22
2022-12-04T17:11:33.870Z,101846.72
2022-12-04T17:14:35.782Z,101843.22
2022-12-04T17:17:39.219Z,101848.44
2022-12-04T17:20:42.513Z,101850.19
2022-12-04T17:23:44.837Z,101844.97
2022-12-04T17:26:46.740Z,101839.72
2022-12-04T17:29:48.676Z,101845.81
2022-12-04T17:32:50.618Z,101840.59
2022-12-04T17:35:54.146Z,101852.75
2022-12-04T17:38:57.801Z,101845.81
2022-12-04T17:41:59.652Z,101846.69
2022-12-04T17:45:01.580Z,101850.16
2022-12-04T17:48:03.421Z,101869.28
2022-12-04T17:51:13.966Z,101861.47
2022-12-04T17:54:16.033Z,101869.25
2022-12-04T17:57:18.962Z,101851.88
2022-12-04T18:00:23.319Z,101863.13
2022-12-04T18:03:25.212Z,101863.16
2022-12-04T18:06:30.049Z,101853.56
2022-12-04T18:09:33.176Z,101857.91
2022-12-04T18:12:35.117Z,101860.47
2022-12-04T18:15:36.975Z,101857.91
2022-12-04T18:18:39.373Z,101863.13
2022-12-04T18:21:41.747Z,101857.00
2022-12-04T18:24:46.243Z,101867.44
2022-12-04T18:27:48.075Z,101870.00
2022-12-04T18:30:50.020Z,101861.28
2022-12-04T18:33:52.011Z,101862.19
2022-12-04T18:36:54.019Z,101858.69
2022-12-04T18:39:56.327Z,101863.88
2022-12-04T18:43:00.143Z,101867.38
2022-12-04T18:46:08.312Z,101861.28
2022-12-04T18:49:13.735Z,101860.41
2022-12-04T18:52:15.809Z,101862.97
2022-12-04T18:55:17.715Z,101852.56
2022-12-04T18:58:22.731Z,101868.19
2022-12-04T19:01:25.604Z,101861.22
2022-12-04T19:04:27.658Z,101859.50
2022-12-04T19:07:29.689Z,101862.97
2022-12-04T19:10:31.535Z,101856.84
2022-12-04T19:13:34.072Z,101864.66
2022-12-04T19:16:36.082Z,101849.91
2022-12-04T19:19:38.162Z,101860.28
2022-12-04T19:22:40.415Z,101850.75
2022-12-04T19:25:42.327Z,101846.38
2022-12-04T19:28:45.386Z,101848.94
2022-12-04T19:31:47.426Z,101841.16
2022-12-04T19:34:50.551Z,101848.06
2022-12-04T19:37:54.944Z,101845.44
2022-12-04T19:41:21.717Z,101842.81
2022-12-04T19:44:47.788Z,101854.09
2022-12-04T19:47:45.686Z,101849.72
2022-12-04T19:50:47.570Z,101848.88
2022-12-04T19:53:49.617Z,101841.03
2022-12-04T19:56:52.643Z,101847.97
2022-12-04T19:59:54.533Z,101830.63
2022-12-04T20:02:56.479Z,101841.91
2022-12-04T20:06:18.256Z,101834.03
2022-12-04T20:09:22.295Z,101852.25
2022-12-04T20:12:24.785Z,101858.31
2022-12-04T20:15:26.715Z,101851.34
2022-12-04T20:18:28.579Z,101853.94
2022-12-04T20:21:32.026Z,101847.00
2022-12-04T20:24:33.982Z,101853.94
2022-12-04T20:27:35.867Z,101848.69
2022-12-04T20:30:37.678Z,101858.28
2022-12-04T20:33:41.209Z,101849.56
2022-12-04T20:36:44.546Z,101854.78
2022-12-04T20:39:46.399Z,101857.34
2022-12-04T20:42:48.261Z,101855.63
2022-12-04T20:45:50.180Z,101845.22
2022-12-04T20:48:53.538Z,101855.59
2022-12-04T20:51:55.395Z,101853.00
2022-12-04T20:54:57.277Z,101842.53
2022-12-04T20:57:59.141Z,101837.34
2022-12-04T21:01:18.387Z,101835.63
2022-12-04T21:04:20.586Z,101832.13
2022-12-04T21:07:22.672Z,101831.22
2022-12-04T21:10:24.664Z,101825.09
2022-12-04T21:13:44.772Z,101825.16
2022-12-04T21:16:47.673Z,101831.22
2022-12-04T21:19:50.572Z,101831.22
2022-12-04T21:22:53.174Z,101838.13
2022-12-04T21:25:55.867Z,101832.94
2022-12-04T21:28:58.619Z,101828.59
2022-12-04T21:32:00.669Z,101829.41
2022-12-04T21:35:02.926Z,101824.19
2022-12-04T21:38:04.755Z,101824.16
2022-12-04T21:41:08.299Z,101820.69
2022-12-04T21:44:13.027Z,101816.34
2022-12-04T21:47:14.887Z,101824.16
2022-12-04T21:50:16.883Z,101818.06
2022-12-04T21:53:18.791Z,101821.56
2022-12-04T21:56:22.479Z,101817.19
2022-12-04T21:59:26.114Z,101820.63
2022-12-04T22:02:28.486Z,101811.13
2022-12-04T22:05:33.414Z,101819.81
2022-12-04T22:08:37.883Z,101800.72
2022-12-04T22:11:42.088Z,101807.63
2022-12-04T22:14:44.378Z,101813.69
2022-12-04T22:17:46.299Z,101814.50
2022-12-04T22:20:49.239Z,101805.78
2022-12-04T22:23:57.919Z,101798.00
2022-12-04T22:26:59.949Z,101800.53
2022-12-04T22:30:01.757Z,101809.25
2022-12-04T22:33:04.035Z,101813.56
2022-12-04T22:36:09.185Z,101813.53
2022-12-04T22:39:11.345Z,101802.22
2022-12-04T22:42:13.526Z,101804.88
2022-12-04T22:45:15.382Z,101806.53
2022-12-04T22:48:17.245Z,101799.56
2022-12-04T22:51:21.444Z,101800.44
2022-12-04T22:54:23.354Z,101805.59
2022-12-04T22:57:25.709Z,101792.53
2022-12-04T23:00:28.370Z,101791.59
2022-12-04T23:03:30.273Z,101788.09
2022-12-04T23:06:34.005Z,101786.41
2022-12-04T23:09:36.250Z,101792.38
2022-12-04T23:12:38.161Z,101789.00
2022-12-04T23:15:40.107Z,101789.81
2022-12-04T23:18:41.980Z,101797.56
2022-12-04T23:21:44.845Z,101790.56
2022-12-04T23:24:46.584Z,101791.47
2022-12-04T23:27:48.924Z,101789.72
2022-12-04T23:30:50.831Z,101787.16
2022-12-04T23:33:52.811Z,101781.88
2022-12-04T23:36:54.669Z,101786.97
2022-12-04T23:39:56.872Z,101784.41
2022-12-04T23:42:58.947Z,101786.97
2022-12-04T23:46:03.423Z,101786.13
2022-12-04T23:49:08.600Z,101781.81
2022-12-04T23:52:10.323Z,101785.16
2022-12-04T23:55:12.176Z,101781.69
2022-12-04T23:58:14.029Z,101783.44
